createdAt,value
2019-03-20T00:02:08.469Z,102241.31
2019-03-20T00:04:49.693Z,102247.34
2019-03-20T00:07:17.103Z,102245.33
2019-03-20T00:09:50.521Z,102239.02
2019-03-20T00:12:23.906Z,102244.06
2019-03-20T00:14:57.403Z,102236.38
2019-03-20T00:17:30.794Z,102233.63
2019-03-20T00:20:25.958Z,102233.98
2019-03-20T00:23:00.205Z,102235.87
2019-03-20T00:25:33.585Z,102234.05
2019-03-20T00:28:07.069Z,102234.42
2019-03-20T00:30:40.505Z,102234.09
2019-03-20T00:33:13.965Z,102234.21
2019-03-20T00:35:47.387Z,102235.02
2019-03-20T00:38:20.885Z,102238.45
2019-03-20T00:40:54.322Z,102226.22
2019-03-20T00:43:27.769Z,102230.42
2019-03-20T00:46:01.093Z,102230.42
2019-03-20T00:48:34.478Z,102231.91
2019-03-20T00:51:07.926Z,102231.57
2019-03-20T00:53:41.342Z,102223.43
2019-03-20T00:56:14.739Z,102224.98
2019-03-20T00:58:48.130Z,102224.62
2019-03-20T01:01:21.715Z,102226.29
2019-03-20T01:03:55.082Z,102222.17
2019-03-20T01:06:28.508Z,102224.50
2019-03-20T01:09:01.954Z,102220.83
2019-03-20T01:11:35.338Z,102217.56
2019-03-20T01:14:08.767Z,102218.61
2019-03-20T01:16:42.127Z,102219.87
2019-03-20T01:19:15.558Z,102216.41
2019-03-20T01:21:48.867Z,102216.86
2019-03-20T01:24:22.294Z,102208.50
2019-03-20T01:26:55.644Z,102203.83
2019-03-20T01:29:29.039Z,102209.66
2019-03-20T01:32:02.459Z,102206.65
2019-03-20T01:34:35.949Z,102211.77
2019-03-20T01:37:09.342Z,102207.02
2019-03-20T01:39:42.777Z,102205.80
2019-03-20T01:42:16.159Z,102209.17
2019-03-20T01:44:49.573Z,102205.45
2019-03-20T01:47:23.025Z,102209.36
2019-03-20T01:49:56.443Z,102214.45
2019-03-20T01:52:29.865Z,102207.40
2019-03-20T01:55:03.332Z,102210.77
2019-03-20T01:57:36.718Z,102209.52
2019-03-20T02:00:11.432Z,102209.11
2019-03-20T02:02:45.018Z,102215.38
2019-03-20T02:05:18.509Z,102217.05
2019-03-20T02:07:51.913Z,102215.30
2019-03-20T02:10:25.415Z,102209.47
2019-03-20T02:12:59.029Z,102214.45
2019-03-20T02:15:38.705Z,102209.95
2019-03-20T02:18:07.642Z,102214.81
2019-03-20T02:20:41.160Z,102213.14
2019-03-20T02:23:14.483Z,102207.64
2019-03-20T02:25:47.848Z,102203.56
2019-03-20T02:28:21.195Z,102206.16
2019-03-20T02:30:54.542Z,102196.47
2019-03-20T02:33:27.887Z,102198.17
2019-03-20T02:36:01.424Z,102206.16
2019-03-20T02:38:34.856Z,102208.73
2019-03-20T02:41:08.272Z,102207.02
2019-03-20T02:43:41.687Z,102209.58
2019-03-20T02:46:15.130Z,102203.04
2019-03-20T02:48:48.581Z,102201.78
2019-03-20T02:51:21.941Z,102198.77
2019-03-20T02:53:55.409Z,102191.52
2019-03-20T02:56:28.884Z,102194.05
2019-03-20T02:59:02.389Z,102189.00
2019-03-20T03:01:35.806Z,102185.62
2019-03-20T03:04:09.232Z,102189.81
2019-03-20T03:06:42.649Z,102189.93
2019-03-20T03:09:16.062Z,102187.44
2019-03-20T03:11:49.522Z,102190.78
2019-03-20T03:14:22.963Z,102194.05
2019-03-20T03:16:56.381Z,102190.22
2019-03-20T03:19:29.839Z,102178.78
2019-03-20T03:22:03.425Z,102176.45
2019-03-20T03:24:36.736Z,102174.00
2019-03-20T03:27:10.172Z,102176.08
2019-03-20T03:29:43.598Z,102180.72
2019-03-20T03:32:17.016Z,102178.67
2019-03-20T03:34:50.364Z,102168.58
2019-03-20T03:37:23.796Z,102172.81
2019-03-20T03:39:57.178Z,102179.23
2019-03-20T03:42:30.680Z,102173.73
2019-03-20T03:45:06.664Z,102178.42
2019-03-20T03:47:40.209Z,102182.95
2019-03-20T03:50:13.710Z,102181.20
2019-03-20T03:52:47.060Z,102180.05
2019-03-20T03:55:20.408Z,102183.55
2019-03-20T03:57:53.934Z,102186.56
2019-03-20T04:00:27.272Z,102193.69
2019-03-20T04:03:00.688Z,102191.91
2019-03-20T04:05:34.140Z,102198.70
2019-03-20T04:08:07.582Z,102200.33
2019-03-20T04:10:41.061Z,102203.23
2019-03-20T04:13:14.477Z,102196.47
2019-03-20T04:15:47.868Z,102193.53
2019-03-20T04:18:21.302Z,102193.13
2019-03-20T04:20:54.637Z,102186.81
2019-03-20T04:23:28.119Z,102198.99
2019-03-20T04:26:01.495Z,102191.45
2019-03-20T04:28:34.905Z,102205.80
2019-03-20T04:31:08.305Z,102198.70
2019-03-20T04:33:41.846Z,102185.26
2019-03-20T04:36:15.184Z,102189.05
2019-03-20T04:38:48.634Z,102190.94
2019-03-20T04:41:22.031Z,102193.34
2019-03-20T04:43:55.388Z,102195.67
2019-03-20T04:46:28.807Z,102196.83
2019-03-20T04:49:02.215Z,102198.58
2019-03-20T04:51:35.578Z,102202.84
2019-03-20T04:54:08.909Z,102208.67
2019-03-20T04:56:42.269Z,102212.98
2019-03-20T04:59:15.601Z,102218.60
2019-03-20T05:01:49.033Z,102218.41
2019-03-20T05:04:22.432Z,102218.89
2019-03-20T05:06:59.167Z,102219.41
2019-03-20T05:09:31.753Z,102219.38
2019-03-20T05:12:05.177Z,102219.86
2019-03-20T05:14:38.561Z,102227.92
2019-03-20T05:17:12.046Z,102224.69
2019-03-20T05:19:45.404Z,102226.22
2019-03-20T05:22:18.821Z,102228.50
2019-03-20T05:24:52.146Z,102225.63
2019-03-20T05:27:25.580Z,102221.10
2019-03-20T05:29:59.000Z,102223.74
2019-03-20T05:32:33.373Z,102224.23
2019-03-20T05:35:07.840Z,102227.53
2019-03-20T05:37:41.327Z,102221.22
2019-03-20T05:40:16.017Z,102222.11
2019-03-20T05:42:49.452Z,102222.92
2019-03-20T05:45:22.853Z,102223.37
2019-03-20T05:47:56.245Z,102229.13
2019-03-20T05:50:29.628Z,102226.72
2019-03-20T05:53:03.071Z,102227.27
2019-03-20T05:55:36.533Z,102232.96
2019-03-20T05:58:09.953Z,102222.59
2019-03-20T06:00:43.355Z,102226.49
2019-03-20T06:03:16.778Z,102232.63
2019-03-20T06:05:50.220Z,102235.30
2019-03-20T06:08:23.718Z,102234.22
2019-03-20T06:10:57.246Z,102236.06
2019-03-20T06:13:30.636Z,102234.65
2019-03-20T06:16:04.132Z,102236.09
2019-03-20T06:18:37.573Z,102233.29
2019-03-20T06:21:10.976Z,102233.39
2019-03-20T06:23:44.399Z,102239.35
2019-03-20T06:26:17.862Z,102245.03
2019-03-20T06:28:51.230Z,102242.97
2019-03-20T06:31:24.616Z,102243.91
2019-03-20T06:33:58.013Z,102252.19
2019-03-20T06:36:31.412Z,102252.92
2019-03-20T06:39:06.933Z,102254.69
2019-03-20T06:41:40.278Z,102250.14
2019-03-20T06:44:13.745Z,102250.53
2019-03-20T06:46:47.242Z,102254.67
2019-03-20T06:49:20.647Z,102261.35
2019-03-20T06:51:54.144Z,102262.03
2019-03-20T06:54:27.576Z,102266.06
2019-03-20T06:57:00.951Z,102273.16
2019-03-20T06:59:37.577Z,102255.48
2019-03-20T07:02:10.879Z,102261.84
2019-03-20T07:05:07.352Z,102266.44
2019-03-20T07:07:44.266Z,102261.62
2019-03-20T07:10:18.922Z,102251.24
2019-03-20T07:12:52.459Z,102258.86
2019-03-20T07:15:25.800Z,102257.63
2019-03-20T07:17:59.303Z,102256.59
2019-03-20T07:20:32.721Z,102260.22
2019-03-20T07:23:06.123Z,102256.33
2019-03-20T07:25:40.114Z,102254.77
2019-03-20T07:28:13.547Z,102255.70
2019-03-20T07:30:46.974Z,102259.51
2019-03-20T07:33:20.549Z,102263.73
2019-03-20T07:35:54.026Z,102259.52
2019-03-20T07:38:27.525Z,102253.59
2019-03-20T07:41:01.016Z,102265.61
2019-03-20T07:43:34.462Z,102268.00
2019-03-20T07:46:07.896Z,102272.27
2019-03-20T07:48:41.254Z,102268.92
2019-03-20T07:51:14.578Z,102275.25
2019-03-20T07:53:47.938Z,102282.62
2019-03-20T07:56:21.443Z,102276.58
2019-03-20T07:58:54.826Z,102277.89
2019-03-20T08:01:28.167Z,102284.33
2019-03-20T08:04:01.538Z,102285.62
2019-03-20T08:06:34.925Z,102292.94
2019-03-20T08:09:08.423Z,102298.48
2019-03-20T08:11:41.785Z,102295.91
2019-03-20T08:14:15.475Z,102300.23
2019-03-20T08:16:48.866Z,102299.34
2019-03-20T08:19:22.238Z,102293.37
2019-03-20T08:21:55.571Z,102301.91
2019-03-20T08:24:28.959Z,102301.47
2019-03-20T08:27:02.310Z,102305.31
2019-03-20T08:29:35.814Z,102302.31
2019-03-20T08:32:09.147Z,102307.44
2019-03-20T08:34:42.520Z,102302.36
2019-03-20T08:37:16.034Z,102298.08
2019-03-20T08:39:49.533Z,102298.91
2019-03-20T08:42:23.043Z,102296.32
2019-03-20T08:44:56.546Z,102294.16
2019-03-20T08:47:29.983Z,102293.30
2019-03-20T08:50:04.278Z,102292.45
2019-03-20T08:52:37.722Z,102289.43
2019-03-20T08:55:13.578Z,102293.56
2019-03-20T08:57:47.117Z,102288.22
2019-03-20T09:00:23.792Z,102290.50
2019-03-20T09:02:57.200Z,102290.27
2019-03-20T09:05:30.640Z,102295.91
2019-03-20T09:08:04.159Z,102299.20
2019-03-20T09:10:37.595Z,102296.52
2019-03-20T09:13:10.993Z,102299.73
2019-03-20T09:15:44.477Z,102299.06
2019-03-20T09:18:17.954Z,102298.20
2019-03-20T09:20:51.432Z,102298.41
2019-03-20T09:23:24.842Z,102293.19
2019-03-20T09:25:58.375Z,102285.61
2019-03-20T09:28:31.726Z,102303.50
2019-03-20T09:31:05.329Z,102305.78
2019-03-20T09:33:38.818Z,102301.53
2019-03-20T09:36:12.145Z,102298.00
2019-03-20T09:38:45.506Z,102292.91
2019-03-20T09:41:18.962Z,102291.05
2019-03-20T09:43:52.401Z,102294.03
2019-03-20T09:46:25.833Z,102290.61
2019-03-20T09:48:59.400Z,102282.89
2019-03-20T09:51:32.757Z,102281.75
2019-03-20T09:54:07.689Z,102286.16
2019-03-20T09:56:41.078Z,102282.64
2019-03-20T09:59:14.519Z,102280.83
2019-03-20T10:01:47.879Z,102275.60
2019-03-20T10:04:21.383Z,102279.16
2019-03-20T10:06:54.956Z,102280.19
2019-03-20T10:09:28.377Z,102275.33
2019-03-20T10:12:01.794Z,102280.48
2019-03-20T10:14:35.253Z,102281.81
2019-03-20T10:17:09.102Z,102285.97
2019-03-20T10:19:44.565Z,102283.59
2019-03-20T10:22:18.098Z,102285.77
2019-03-20T10:24:51.463Z,102285.48
2019-03-20T10:27:24.926Z,102284.86
2019-03-20T10:29:58.359Z,102284.02
2019-03-20T10:32:31.681Z,102281.39
2019-03-20T10:35:07.995Z,102279.88
2019-03-20T10:37:41.423Z,102276.41
2019-03-20T10:40:28.676Z,102279.04
2019-03-20T10:43:02.181Z,102280.58
2019-03-20T10:45:35.709Z,102277.16
2019-03-20T10:48:09.059Z,102277.77
2019-03-20T10:50:42.566Z,102276.84
2019-03-20T10:53:16.032Z,102280.16
2019-03-20T10:55:51.775Z,102283.11
2019-03-20T10:58:24.635Z,102283.21
2019-03-20T11:00:58.242Z,102294.20
2019-03-20T11:03:31.631Z,102302.56
2019-03-20T11:06:05.364Z,102300.63
2019-03-20T11:08:39.009Z,102306.25
2019-03-20T11:11:12.411Z,102295.91
2019-03-20T11:13:45.793Z,102297.98
2019-03-20T11:16:19.336Z,102305.39
2019-03-20T11:18:52.682Z,102304.34
2019-03-20T11:21:26.119Z,102297.50
2019-03-20T11:23:59.518Z,102301.26
2019-03-20T11:26:32.977Z,102294.06
2019-03-20T11:29:06.613Z,102297.06
2019-03-20T11:31:40.182Z,102301.17
2019-03-20T11:34:13.584Z,102303.20
2019-03-20T11:36:47.081Z,102302.81
2019-03-20T11:39:29.150Z,102306.42
2019-03-20T11:41:55.776Z,102305.15
2019-03-20T11:44:29.129Z,102310.27
2019-03-20T11:47:02.527Z,102307.16
2019-03-20T11:49:35.991Z,102303.63
2019-03-20T11:52:09.389Z,102305.94
2019-03-20T11:54:42.955Z,102312.78
2019-03-20T11:57:16.489Z,102318.88
2019-03-20T11:59:49.981Z,102313.67
2019-03-20T12:02:28.032Z,102316.39
2019-03-20T12:04:58.599Z,102326.27
2019-03-20T12:07:31.964Z,102338.48
2019-03-20T12:10:31.019Z,102339.36
2019-03-20T12:13:04.629Z,102340.12
2019-03-20T12:15:38.028Z,102340.58
2019-03-20T12:18:11.498Z,102339.33
2019-03-20T12:20:44.811Z,102342.19
2019-03-20T12:23:18.298Z,102342.06
2019-03-20T12:25:51.706Z,102341.05
2019-03-20T12:28:25.184Z,102334.66
2019-03-20T12:30:58.542Z,102331.40
2019-03-20T12:33:31.993Z,102333.85
2019-03-20T12:36:05.431Z,102333.89
2019-03-20T12:38:38.879Z,102329.58
2019-03-20T12:41:12.273Z,102329.54
2019-03-20T12:43:45.724Z,102324.78
2019-03-20T12:46:19.172Z,102327.69
2019-03-20T12:48:52.651Z,102327.12
2019-03-20T12:51:26.221Z,102331.92
2019-03-20T12:53:59.650Z,102332.64
2019-03-20T12:56:33.115Z,102326.36
2019-03-20T12:59:07.683Z,102334.87
2019-03-20T13:01:41.059Z,102342.64
2019-03-20T13:04:14.504Z,102334.84
2019-03-20T13:06:47.888Z,102335.03
2019-03-20T13:09:21.267Z,102336.31
2019-03-20T13:11:54.697Z,102341.23
2019-03-20T13:14:28.295Z,102338.69
2019-03-20T13:17:01.665Z,102337.47
2019-03-20T13:19:35.186Z,102336.52
2019-03-20T13:22:08.567Z,102334.28
2019-03-20T13:24:42.009Z,102322.83
2019-03-20T13:27:15.494Z,102331.00
2019-03-20T13:29:48.952Z,102321.48
2019-03-20T13:32:22.437Z,102321.91
2019-03-20T13:34:55.912Z,102333.44
2019-03-20T13:37:29.336Z,102322.45
2019-03-20T13:40:02.749Z,102321.58
2019-03-20T13:42:36.228Z,102315.61
2019-03-20T13:45:18.587Z,102313.38
2019-03-20T13:47:51.941Z,102311.37
2019-03-20T13:50:25.427Z,102306.50
2019-03-20T13:52:58.941Z,102314.08
2019-03-20T13:55:32.428Z,102308.30
2019-03-20T13:58:05.839Z,102304.91
2019-03-20T14:00:39.268Z,102309.89
2019-03-20T14:03:12.714Z,102308.83
2019-03-20T14:05:46.265Z,102307.95
2019-03-20T14:08:19.731Z,102310.50
2019-03-20T14:10:53.119Z,102311.11
2019-03-20T14:13:26.526Z,102314.05
2019-03-20T14:15:59.947Z,102320.63
2019-03-20T14:18:33.371Z,102319.41
2019-03-20T14:21:07.057Z,102319.88
2019-03-20T14:23:40.491Z,102330.52
2019-03-20T14:26:13.903Z,102317.84
2019-03-20T14:28:47.272Z,102328.73
2019-03-20T14:31:20.796Z,102325.73
2019-03-20T14:33:54.281Z,102328.73
2019-03-20T14:36:27.697Z,102328.67
2019-03-20T14:39:01.031Z,102318.00
2019-03-20T14:41:34.984Z,102319.48
2019-03-20T14:44:08.385Z,102318.34
2019-03-20T14:46:41.828Z,102305.01
2019-03-20T14:49:15.248Z,102312.13
2019-03-20T14:51:48.770Z,102307.64
2019-03-20T14:54:22.176Z,102303.75
2019-03-20T14:56:55.674Z,102310.16
2019-03-20T14:59:29.140Z,102304.84
2019-03-20T15:02:02.536Z,102303.22
2019-03-20T15:04:35.932Z,102305.75
2019-03-20T15:07:09.393Z,102308.97
2019-03-20T15:09:42.856Z,102309.94
2019-03-20T15:12:16.290Z,102308.41
2019-03-20T15:14:49.733Z,102309.31
2019-03-20T15:17:23.172Z,102308.30
2019-03-20T15:19:56.514Z,102300.52
2019-03-20T15:22:30.075Z,102296.97
2019-03-20T15:25:03.617Z,102290.60
2019-03-20T15:27:37.120Z,102300.20
2019-03-20T15:30:40.179Z,102301.55
2019-03-20T15:33:13.505Z,102290.78
2019-03-20T15:35:46.927Z,102292.53
2019-03-20T15:38:20.312Z,102298.70
2019-03-20T15:40:56.409Z,102297.33
2019-03-20T15:43:28.833Z,102302.86
2019-03-20T15:46:02.328Z,102300.61
2019-03-20T15:48:35.654Z,102297.59
2019-03-20T15:51:09.268Z,102299.38
2019-03-20T15:53:42.614Z,102307.59
2019-03-20T15:56:16.039Z,102310.57
2019-03-20T15:58:49.377Z,102305.63
2019-03-20T16:01:22.727Z,102311.73
2019-03-20T16:03:56.156Z,102311.30
2019-03-20T16:06:29.652Z,102321.48
2019-03-20T16:09:04.454Z,102320.81
2019-03-20T16:11:37.874Z,102316.03
2019-03-20T16:14:11.269Z,102322.41
2019-03-20T16:16:44.661Z,102328.34
2019-03-20T16:19:18.040Z,102327.05
2019-03-20T16:21:51.514Z,102334.75
2019-03-20T16:24:24.924Z,102336.05
2019-03-20T16:26:58.371Z,102336.95
2019-03-20T16:29:31.930Z,102334.38
2019-03-20T16:32:05.434Z,102333.93
2019-03-20T16:34:38.868Z,102333.11
2019-03-20T16:37:12.461Z,102333.25
2019-03-20T16:39:45.891Z,102333.28
2019-03-20T16:42:19.419Z,102324.19
2019-03-20T16:44:52.767Z,102325.91
2019-03-20T16:47:26.233Z,102332.36
2019-03-20T16:49:59.651Z,102328.16
2019-03-20T16:52:33.076Z,102326.83
2019-03-20T16:55:09.422Z,102328.12
2019-03-20T16:57:42.975Z,102331.13
2019-03-20T17:00:25.173Z,102330.25
2019-03-20T17:02:58.771Z,102336.65
2019-03-20T17:05:32.179Z,102337.89
2019-03-20T17:08:05.582Z,102342.63
2019-03-20T17:10:40.621Z,102345.76
2019-03-20T17:13:14.141Z,102351.27
2019-03-20T17:15:47.536Z,102353.86
2019-03-20T17:18:20.921Z,102351.28
2019-03-20T17:20:54.393Z,102352.61
2019-03-20T17:23:27.828Z,102353.86
2019-03-20T17:26:01.171Z,102357.33
2019-03-20T17:28:34.672Z,102356.14
2019-03-20T17:31:08.097Z,102349.71
2019-03-20T17:33:41.561Z,102352.23
2019-03-20T17:36:14.938Z,102356.91
2019-03-20T17:38:48.394Z,102358.61
2019-03-20T17:41:21.762Z,102362.88
2019-03-20T17:43:55.214Z,102364.56
2019-03-20T17:46:28.666Z,102364.53
2019-03-20T17:49:02.104Z,102365.47
2019-03-20T17:51:35.523Z,102364.60
2019-03-20T17:54:09.064Z,102364.57
2019-03-20T17:56:42.419Z,102367.58
2019-03-20T17:59:15.863Z,102375.71
2019-03-20T18:01:49.203Z,102381.67
2019-03-20T18:04:22.657Z,102375.70
2019-03-20T18:06:56.150Z,102373.97
2019-03-20T18:09:29.758Z,102371.82
2019-03-20T18:12:03.450Z,102371.36
2019-03-20T18:14:36.854Z,102374.80
2019-03-20T18:17:10.278Z,102381.66
2019-03-20T18:19:43.753Z,102383.39
2019-03-20T18:22:17.347Z,102389.01
2019-03-20T18:24:50.800Z,102383.84
2019-03-20T18:27:24.301Z,102385.52
2019-03-20T18:29:57.765Z,102383.42
2019-03-20T18:32:31.147Z,102389.03
2019-03-20T18:35:06.578Z,102389.44
2019-03-20T18:37:39.952Z,102388.17
2019-03-20T18:40:16.490Z,102390.26
2019-03-20T18:42:49.965Z,102395.55
2019-03-20T18:45:24.445Z,102392.48
2019-03-20T18:47:57.952Z,102391.60
2019-03-20T18:50:31.367Z,102387.31
2019-03-20T18:53:04.909Z,102385.17
2019-03-20T18:55:38.833Z,102383.03
2019-03-20T18:58:12.313Z,102379.63
2019-03-20T19:00:45.850Z,102387.36
2019-03-20T19:03:22.468Z,102383.96
2019-03-20T19:06:07.591Z,102381.00
2019-03-20T19:08:42.639Z,102383.11
2019-03-20T19:11:16.107Z,102385.25
2019-03-20T19:13:49.609Z,102382.75
2019-03-20T19:16:22.988Z,102382.28
2019-03-20T19:18:56.472Z,102392.11
2019-03-20T19:21:29.955Z,102392.98
2019-03-20T19:24:04.876Z,102396.37
2019-03-20T19:26:38.210Z,102392.52
2019-03-20T19:29:11.747Z,102392.56
2019-03-20T19:31:45.103Z,102391.66
2019-03-20T19:34:18.549Z,102398.05
2019-03-20T19:36:51.886Z,102412.61
2019-03-20T19:39:25.376Z,102407.09
2019-03-20T19:41:58.895Z,102406.24
2019-03-20T19:44:32.408Z,102406.23
2019-03-20T19:47:05.809Z,102410.06
2019-03-20T19:49:39.276Z,102411.73
2019-03-20T19:52:12.683Z,102400.56
2019-03-20T19:54:46.085Z,102396.31
2019-03-20T19:57:19.573Z,102401.48
2019-03-20T19:59:53.197Z,102400.19
2019-03-20T20:02:26.538Z,102403.60
2019-03-20T20:05:00.062Z,102410.86
2019-03-20T20:07:33.504Z,102412.97
2019-03-20T20:10:09.622Z,102412.96
2019-03-20T20:12:43.162Z,102417.69
2019-03-20T20:15:22.180Z,102422.02
2019-03-20T20:17:55.721Z,102416.02
2019-03-20T20:20:34.600Z,102422.84
2019-03-20T20:23:08.021Z,102422.41
2019-03-20T20:25:41.675Z,102424.98
2019-03-20T20:28:15.029Z,102426.27
2019-03-20T20:30:48.493Z,102431.39
2019-03-20T20:33:21.935Z,102426.25
2019-03-20T20:35:55.288Z,102436.94
2019-03-20T20:38:28.706Z,102437.81
2019-03-20T20:41:02.070Z,102430.52
2019-03-20T20:43:35.543Z,102437.39
2019-03-20T20:46:08.916Z,102439.09
2019-03-20T20:48:42.311Z,102443.36
2019-03-20T20:51:15.680Z,102450.70
2019-03-20T20:53:49.374Z,102446.46
2019-03-20T20:56:22.911Z,102448.16
2019-03-20T20:58:56.380Z,102441.71
2019-03-20T21:01:30.238Z,102444.25
2019-03-20T21:04:03.817Z,102443.42
2019-03-20T21:06:37.337Z,102442.14
2019-03-20T21:09:10.745Z,102442.52
2019-03-20T21:11:44.191Z,102445.60
2019-03-20T21:14:17.540Z,102443.86
2019-03-20T21:16:50.980Z,102442.55
2019-03-20T21:19:34.617Z,102443.42
2019-03-20T21:22:45.818Z,102439.14
2019-03-20T21:25:19.255Z,102439.59
2019-03-20T21:28:17.146Z,102436.57
2019-03-20T21:30:53.960Z,102443.87
2019-03-20T21:33:45.148Z,102440.05
2019-03-20T21:36:54.625Z,102440.47
2019-03-20T21:39:28.156Z,102447.30
2019-03-20T21:42:16.896Z,102451.56
2019-03-20T21:45:08.783Z,102451.13
2019-03-20T21:47:42.149Z,102452.86
2019-03-20T21:50:42.654Z,102453.25
2019-03-20T21:53:50.893Z,102457.16
2019-03-20T21:56:42.567Z,102451.14
2019-03-20T21:59:35.423Z,102460.14
2019-03-20T22:02:47.499Z,102459.69
2019-03-20T22:05:49.657Z,102457.19
2019-03-20T22:08:23.091Z,102456.72
2019-03-20T22:11:05.032Z,102469.64
2019-03-20T22:13:44.397Z,102466.16
2019-03-20T22:16:25.917Z,102468.70
2019-03-20T22:19:24.790Z,102468.27
2019-03-20T22:22:28.505Z,102476.88
2019-03-20T22:25:25.849Z,102472.98
2019-03-20T22:28:31.357Z,102479.41
2019-03-20T22:31:04.730Z,102487.11
2019-03-20T22:34:14.424Z,102490.55
2019-03-20T22:36:47.795Z,102483.73
2019-03-20T22:39:39.530Z,102488.06
2019-03-20T22:42:18.586Z,102486.83
2019-03-20T22:45:06.714Z,102482.09
2019-03-20T22:47:59.479Z,102479.98
2019-03-20T22:50:50.990Z,102482.10
2019-03-20T22:53:30.381Z,102487.66
2019-03-20T22:56:09.421Z,102476.58
2019-03-20T22:58:41.973Z,102478.70
2019-03-20T23:01:18.893Z,102482.13
2019-03-20T23:04:00.985Z,102489.87
2019-03-20T23:06:34.461Z,102488.56
2019-03-20T23:09:08.851Z,102490.69
2019-03-20T23:11:42.393Z,102493.25
2019-03-20T23:14:15.846Z,102489.41
2019-03-20T23:16:49.210Z,102486.83
2019-03-20T23:19:22.641Z,102487.25
2019-03-20T23:21:56.114Z,102486.00
2019-03-20T23:24:29.593Z,102494.14
2019-03-20T23:27:06.124Z,102497.13
2019-03-20T23:29:39.562Z,102492.00
2019-03-20T23:32:12.999Z,102494.98
2019-03-20T23:34:46.366Z,102495.84
2019-03-20T23:37:19.804Z,102495.43
2019-03-20T23:39:53.321Z,102495.85
2019-03-20T23:42:26.760Z,102491.13
2019-03-20T23:45:00.181Z,102497.56
2019-03-20T23:47:37.142Z,102494.55
2019-03-20T23:50:11.814Z,102495.84
2019-03-20T23:52:45.261Z,102496.71
2019-03-20T23:55:18.742Z,102498.00
2019-03-20T23:57:52.203Z,102489.89
